createdAt,value
2022-12-19T00:00:43.828Z,38.66
2022-12-19T00:06:08.115Z,39.16
2022-12-19T00:11:14.356Z,39.32
2022-12-19T00:16:26.437Z,39.53
2022-12-19T00:21:34.653Z,39.62
2022-12-19T00:26:40.349Z,39.90
2022-12-19T00:31:45.913Z,40.04
2022-12-19T00:36:50.504Z,39.89
2022-12-19T00:41:53.370Z,39.78
2022-12-19T00:46:56.156Z,39.49
2022-12-19T00:52:01.602Z,39.44
2022-12-19T00:57:04.422Z,39.28
2022-12-19T01:02:07.320Z,38.80
2022-12-19T01:07:10.701Z,38.83
2022-12-19T01:12:31.956Z,38.98
2022-12-19T01:17:43.437Z,38.95
2022-12-19T01:22:47.883Z,38.94
2022-12-19T01:27:55.193Z,38.75
2022-12-19T01:32:59.730Z,38.83
2022-12-19T01:38:08.097Z,39.06
2022-12-19T01:43:15.785Z,38.93
2022-12-19T01:48:33.729Z,38.71
2022-12-19T01:53:47.429Z,38.55
2022-12-19T01:59:05.775Z,38.78
2022-12-19T02:04:11.890Z,38.68
2022-12-19T02:09:14.824Z,38.10
2022-12-19T02:14:17.826Z,37.71
2022-12-19T02:19:26.809Z,37.91
2022-12-19T02:24:50.941Z,38.15
2022-12-19T02:30:19.505Z,38.37
2022-12-19T02:35:41.164Z,38.75
2022-12-19T02:41:17.725Z,39.56
2022-12-19T02:46:20.559Z,39.65
2022-12-19T02:51:23.572Z,39.81
2022-12-19T02:56:30.008Z,40.14
2022-12-19T03:01:32.935Z,40.98
2022-12-19T03:06:51.184Z,41.84
2022-12-19T03:12:03.214Z,42.50
2022-12-19T03:17:07.876Z,42.62
2022-12-19T03:22:10.916Z,42.55
2022-12-19T03:27:28.503Z,42.55
2022-12-19T03:32:34.691Z,42.87
2022-12-19T03:37:40.936Z,43.24
2022-12-19T03:43:06.019Z,43.66
2022-12-19T03:48:26.704Z,43.55
2022-12-19T03:53:59.207Z,43.49
2022-12-19T03:59:08.905Z,43.51
2022-12-19T04:04:12.587Z,43.60
2022-12-19T04:09:22.465Z,43.11
2022-12-19T04:14:30.541Z,42.58
2022-12-19T04:20:05.091Z,42.58
2022-12-19T04:25:13.290Z,42.59
2022-12-19T04:30:18.884Z,42.31
2022-12-19T04:35:21.784Z,42.57
2022-12-19T04:40:24.566Z,42.91
2022-12-19T04:45:27.335Z,43.25
2022-12-19T04:50:32.443Z,43.59
2022-12-19T04:55:35.218Z,43.60
2022-12-19T05:00:38.030Z,43.46
2022-12-19T05:05:40.766Z,43.78
2022-12-19T05:10:44.233Z,44.21
2022-12-19T05:16:06.294Z,44.55
2022-12-19T05:21:09.601Z,44.92
2022-12-19T05:26:13.287Z,44.74
2022-12-19T05:31:19.939Z,44.59
2022-12-19T05:36:25.447Z,44.39
2022-12-19T05:41:31.987Z,44.46
2022-12-19T05:46:34.853Z,44.77
2022-12-19T05:51:38.456Z,44.86
2022-12-19T05:56:41.270Z,44.67
2022-12-19T06:01:44.443Z,44.37
2022-12-19T06:06:47.544Z,44.27
2022-12-19T06:11:50.310Z,44.33
2022-12-19T06:16:53.137Z,44.64
2022-12-19T06:21:56.575Z,44.69
2022-12-19T06:26:59.441Z,44.25
2022-12-19T06:32:02.406Z,44.27
2022-12-19T06:37:08.251Z,43.96
2022-12-19T06:42:23.724Z,43.72
2022-12-19T06:47:27.359Z,43.26
2022-12-19T06:52:36.357Z,43.35
2022-12-19T06:57:51.963Z,43.26
2022-12-19T07:02:56.676Z,42.78
2022-12-19T07:08:08.510Z,42.87
2022-12-19T07:13:12.281Z,43.27
2022-12-19T07:18:16.126Z,43.53
2022-12-19T07:23:21.369Z,43.54
2022-12-19T07:28:24.413Z,44.01
2022-12-19T07:33:28.520Z,43.82
2022-12-19T07:38:31.720Z,43.46
2022-12-19T07:43:35.263Z,42.90
2022-12-19T07:48:41.264Z,42.57
2022-12-19T07:53:44.333Z,41.52
2022-12-19T07:58:47.646Z,40.93
2022-12-19T08:03:51.364Z,40.28
2022-12-19T08:08:54.473Z,39.14
2022-12-19T08:13:58.167Z,37.82
2022-12-19T08:19:01.139Z,37.65
2022-12-19T08:24:09.615Z,37.85
2022-12-19T08:29:12.398Z,37.78
2022-12-19T08:34:15.406Z,37.13
2022-12-19T08:39:18.296Z,37.66
2022-12-19T08:44:23.772Z,38.39
2022-12-19T08:49:28.356Z,38.98
2022-12-19T08:54:31.193Z,38.69
2022-12-19T08:59:34.182Z,37.89
2022-12-19T09:05:57.212Z,37.82
2022-12-19T09:10:01.180Z,37.99
2022-12-19T09:15:04.648Z,38.59
2022-12-19T09:20:08.552Z,37.79
2022-12-19T09:25:11.658Z,38.04
2022-12-19T09:30:14.587Z,38.00
2022-12-19T09:35:17.475Z,38.40
2022-12-19T09:40:20.448Z,39.19
2022-12-19T09:45:48.789Z,39.34
2022-12-19T09:56:15.426Z,39.34
2022-12-19T10:01:26.000Z,39.50
2022-12-19T10:07:08.712Z,39.14
2022-12-19T10:12:42.260Z,39.24
2022-12-19T10:17:52.323Z,39.47
2022-12-19T10:23:40.540Z,39.39
2022-12-19T10:28:55.684Z,39.72
2022-12-19T10:34:20.146Z,38.88
2022-12-19T10:39:34.340Z,38.60
2022-12-19T10:44:49.243Z,38.45
2022-12-19T10:49:55.620Z,37.80
2022-12-19T10:55:04.153Z,37.61
2022-12-19T11:00:24.648Z,37.47
2022-12-19T11:05:41.702Z,37.53
2022-12-19T11:12:12.967Z,37.22
2022-12-19T11:21:09.683Z,36.87
2022-12-19T11:29:39.633Z,37.04
2022-12-19T11:30:59.584Z,37.17
2022-12-19T11:33:15.948Z,37.23
2022-12-19T11:38:38.720Z,37.08
2022-12-19T11:44:10.085Z,37.22
2022-12-19T11:49:23.264Z,37.72
2022-12-19T11:54:36.863Z,37.20
2022-12-19T11:59:43.293Z,37.28
2022-12-19T12:05:19.691Z,37.49
2022-12-19T12:14:29.153Z,37.30
2022-12-19T12:30:19.011Z,37.82
2022-12-19T12:31:28.655Z,37.78
2022-12-19T12:31:57.753Z,37.55
2022-12-19T12:35:46.743Z,37.45
2022-12-19T12:44:16.402Z,37.79
2022-12-19T12:49:55.252Z,38.44
2022-12-19T12:54:59.184Z,38.39
2022-12-19T13:00:33.044Z,38.05
2022-12-19T13:05:43.363Z,38.19
2022-12-19T13:10:57.779Z,38.06
2022-12-19T13:16:39.494Z,38.51
2022-12-19T13:22:09.913Z,38.61
2022-12-19T13:27:19.202Z,38.67
2022-12-19T13:32:25.789Z,38.68
2022-12-19T13:40:01.587Z,38.72
2022-12-19T13:43:42.665Z,38.64
2022-12-19T13:49:02.942Z,38.71
2022-12-19T13:54:23.167Z,38.60
2022-12-19T13:59:36.682Z,38.60
2022-12-19T14:04:46.197Z,39.01
2022-12-19T14:11:27.824Z,39.17
2022-12-19T14:15:32.078Z,39.29
2022-12-19T14:22:01.868Z,39.23
2022-12-19T14:28:21.795Z,39.14
2022-12-19T14:31:25.977Z,39.21
2022-12-19T14:37:02.945Z,39.07
2022-12-19T14:43:57.044Z,39.04
2022-12-19T14:52:08.328Z,38.98
2022-12-19T14:54:43.805Z,38.88
2022-12-19T14:58:57.503Z,38.58
2022-12-19T15:04:52.413Z,38.34
2022-12-19T15:11:04.089Z,37.83
2022-12-19T15:15:03.306Z,44.09
2022-12-19T15:20:09.508Z,49.24
2022-12-19T15:26:01.525Z,51.41
2022-12-19T15:30:47.657Z,53.31
2022-12-19T15:35:52.614Z,57.24
2022-12-19T15:40:57.119Z,57.53
2022-12-19T15:46:02.625Z,58.36
2022-12-19T15:51:17.368Z,58.45
2022-12-19T15:56:34.212Z,58.82
2022-12-19T16:01:38.499Z,58.31
2022-12-19T16:06:44.306Z,62.06
2022-12-19T16:12:00.639Z,65.50
2022-12-19T16:17:03.858Z,50.97
2022-12-19T16:22:30.345Z,52.72
2022-12-19T16:27:35.995Z,55.02
2022-12-19T16:32:39.236Z,56.60
2022-12-19T16:37:44.636Z,58.28
2022-12-19T16:42:49.162Z,59.60
2022-12-19T16:47:54.422Z,66.40
2022-12-19T16:52:58.279Z,54.44
2022-12-19T16:58:01.790Z,52.77
2022-12-19T17:03:19.895Z,54.79
2022-12-19T17:08:25.020Z,57.40
2022-12-19T17:13:28.892Z,57.60
2022-12-19T17:18:36.089Z,58.95
2022-12-19T17:23:39.636Z,65.84
2022-12-19T17:28:43.756Z,57.23
2022-12-19T17:33:46.678Z,51.23
2022-12-19T17:38:50.558Z,54.25
2022-12-19T17:43:55.382Z,57.33
2022-12-19T17:48:58.534Z,57.48
2022-12-19T17:54:01.528Z,58.69
2022-12-19T17:59:04.805Z,60.45
2022-12-19T18:04:20.333Z,61.52
2022-12-19T18:09:25.189Z,68.40
2022-12-19T18:14:31.885Z,53.12
2022-12-19T18:19:34.850Z,53.04
2022-12-19T18:24:37.993Z,56.58
2022-12-19T18:29:42.108Z,58.89
2022-12-19T18:34:55.500Z,59.32
2022-12-19T18:40:01.483Z,60.26
2022-12-19T18:45:05.530Z,67.55
2022-12-19T18:50:27.241Z,58.89
2022-12-19T18:55:32.589Z,51.14
2022-12-19T19:00:38.756Z,53.97
2022-12-19T19:05:42.458Z,56.76
2022-12-19T19:10:48.659Z,57.75
2022-12-19T19:15:57.216Z,58.88
2022-12-19T19:21:01.755Z,61.37
2022-12-19T19:26:05.979Z,68.85
2022-12-19T19:31:12.643Z,56.63
2022-12-19T19:36:23.702Z,55.74
2022-12-19T19:41:30.627Z,59.15
2022-12-19T19:46:33.685Z,58.80
2022-12-19T19:51:39.474Z,61.96
2022-12-19T19:56:42.316Z,65.40
2022-12-19T20:01:46.759Z,53.76
2022-12-19T20:06:50.353Z,55.52
2022-12-19T20:11:53.724Z,57.73
2022-12-19T20:16:57.246Z,60.02
2022-12-19T20:22:01.151Z,66.63
2022-12-19T20:27:04.118Z,59.94
2022-12-19T20:32:07.127Z,53.31
2022-12-19T20:37:10.276Z,57.31
2022-12-19T20:42:13.340Z,62.24
2022-12-19T20:47:18.933Z,66.81
2022-12-19T20:52:22.039Z,54.34
2022-12-19T20:57:24.958Z,55.68
2022-12-19T21:02:52.622Z,59.79
2022-12-19T21:07:56.337Z,66.92
2022-12-19T21:13:00.135Z,58.57
2022-12-19T21:18:05.417Z,54.25
2022-12-19T21:23:08.251Z,59.49
2022-12-19T21:28:12.417Z,66.04
2022-12-19T21:33:17.662Z,61.91
2022-12-19T21:38:20.774Z,55.63
2022-12-19T21:43:23.670Z,59.33
2022-12-19T21:48:28.132Z,65.06
2022-12-19T21:53:32.110Z,66.62
2022-12-19T21:58:35.751Z,57.96
2022-12-19T22:03:41.825Z,60.70
2022-12-19T22:08:48.262Z,65.85
2022-12-19T22:13:52.687Z,56.53
2022-12-19T22:18:58.084Z,60.09
2022-12-19T22:24:03.974Z,64.83
2022-12-19T22:29:12.496Z,56.45
2022-12-19T22:34:19.661Z,63.56
2022-12-19T22:39:23.605Z,63.09
2022-12-19T22:44:26.591Z,56.79
2022-12-19T22:49:29.551Z,65.67
2022-12-19T22:54:32.783Z,59.88
2022-12-19T22:59:37.345Z,57.60
2022-12-19T23:04:40.190Z,65.99
2022-12-19T23:09:44.383Z,62.69
2022-12-19T23:14:48.622Z,57.18
2022-12-19T23:19:51.948Z,65.35
2022-12-19T23:24:55.260Z,62.93
2022-12-19T23:29:58.254Z,57.06
2022-12-19T23:35:01.332Z,65.36
2022-12-19T23:40:04.666Z,60.61
2022-12-19T23:45:09.445Z,57.67
2022-12-19T23:50:15.711Z,65.47
2022-12-19T23:55:21.340Z,59.32
